sensor_id;sensor_type;location;lat;lon;timestamp;P1;durP1;ratioP1;P2;durP2;ratioP2
8592;SDS011;4334;49.982;8.398;2024-02-16T00:01:59;8.87;;;4.60;;
8592;SDS011;4334;49.982;8.398;2024-02-16T00:04:26;5.40;;;3.73;;
8592;SDS011;4334;49.982;8.398;2024-02-16T00:06:53;7.67;;;3.87;;
8592;SDS011;4334;49.982;8.398;2024-02-16T00:09:20;5.70;;;3.70;;
8592;SDS011;4334;49.982;8.398;2024-02-16T00:11:47;7.20;;;4.43;;
8592;SDS011;4334;49.982;8.398;2024-02-16T00:14:15;6.40;;;3.90;;
8592;SDS011;4334;49.982;8.398;2024-02-16T00:16:42;7.20;;;3.87;;
8592;SDS011;4334;49.982;8.398;2024-02-16T00:19:09;8.63;;;3.90;;
8592;SDS011;4334;49.982;8.398;2024-02-16T00:21:35;8.27;;;4.20;;
8592;SDS011;4334;49.982;8.398;2024-02-16T00:24:02;8.00;;;3.97;;
8592;SDS011;4334;49.982;8.398;2024-02-16T00:26:30;11.27;;;4.00;;
8592;SDS011;4334;49.982;8.398;2024-02-16T00:28:57;5.50;;;3.97;;
8592;SDS011;4334;49.982;8.398;2024-02-16T00:31:24;10.07;;;3.80;;
8592;SDS011;4334;49.982;8.398;2024-02-16T00:33:51;12.27;;;4.30;;
8592;SDS011;4334;49.982;8.398;2024-02-16T00:36:17;5.40;;;3.70;;
8592;SDS011;4334;49.982;8.398;2024-02-16T00:38:44;6.03;;;3.57;;
8592;SDS011;4334;49.982;8.398;2024-02-16T00:41:16;7.20;;;4.00;;
8592;SDS011;4334;49.982;8.398;2024-02-16T00:43:46;6.17;;;3.63;;
8592;SDS011;4334;49.982;8.398;2024-02-16T00:46:12;9.83;;;3.57;;
8592;SDS011;4334;49.982;8.398;2024-02-16T00:48:39;6.90;;;3.60;;
8592;SDS011;4334;49.982;8.398;2024-02-16T00:51:06;7.13;;;3.80;;
8592;SDS011;4334;49.982;8.398;2024-02-16T00:53:32;6.53;;;3.63;;
8592;SDS011;4334;49.982;8.398;2024-02-16T00:55:59;7.30;;;3.93;;
8592;SDS011;4334;49.982;8.398;2024-02-16T00:58:26;7.10;;;3.90;;
8592;SDS011;4334;49.982;8.398;2024-02-16T01:00:54;8.43;;;3.57;;
8592;SDS011;4334;49.982;8.398;2024-02-16T01:03:20;10.27;;;3.40;;
8592;SDS011;4334;49.982;8.398;2024-02-16T01:05:47;8.53;;;3.87;;
8592;SDS011;4334;49.982;8.398;2024-02-16T01:08:14;5.47;;;3.87;;
8592;SDS011;4334;49.982;8.398;2024-02-16T01:10:41;7.00;;;3.77;;
8592;SDS011;4334;49.982;8.398;2024-02-16T01:13:07;5.53;;;4.17;;
8592;SDS011;4334;49.982;8.398;2024-02-16T01:15:35;11.60;;;4.23;;
8592;SDS011;4334;49.982;8.398;2024-02-16T01:18:04;7.87;;;4.40;;
8592;SDS011;4334;49.982;8.398;2024-02-16T01:20:31;6.20;;;4.07;;
8592;SDS011;4334;49.982;8.398;2024-02-16T01:22:57;6.23;;;4.07;;
8592;SDS011;4334;49.982;8.398;2024-02-16T01:25:24;9.27;;;4.20;;
8592;SDS011;4334;49.982;8.398;2024-02-16T01:27:51;7.30;;;4.20;;
8592;SDS011;4334;49.982;8.398;2024-02-16T01:30:17;5.50;;;3.67;;
8592;SDS011;4334;49.982;8.398;2024-02-16T01:32:45;7.37;;;4.27;;
8592;SDS011;4334;49.982;8.398;2024-02-16T01:35:13;6.93;;;3.70;;
8592;SDS011;4334;49.982;8.398;2024-02-16T01:37:40;5.87;;;4.30;;
8592;SDS011;4334;49.982;8.398;2024-02-16T01:40:08;8.77;;;3.87;;
8592;SDS011;4334;49.982;8.398;2024-02-16T01:42:39;6.30;;;3.90;;
8592;SDS011;4334;49.982;8.398;2024-02-16T01:45:07;6.83;;;4.23;;
8592;SDS011;4334;49.982;8.398;2024-02-16T01:47:35;8.63;;;3.60;;
8592;SDS011;4334;49.982;8.398;2024-02-16T01:50:02;5.87;;;3.80;;
8592;SDS011;4334;49.982;8.398;2024-02-16T01:52:30;8.03;;;3.70;;
8592;SDS011;4334;49.982;8.398;2024-02-16T01:54:59;7.87;;;3.47;;
8592;SDS011;4334;49.982;8.398;2024-02-16T01:57:27;5.97;;;4.23;;
8592;SDS011;4334;49.982;8.398;2024-02-16T01:59:54;6.77;;;3.73;;
8592;SDS011;4334;49.982;8.398;2024-02-16T02:02:21;7.37;;;4.17;;
8592;SDS011;4334;49.982;8.398;2024-02-16T02:04:48;12.47;;;4.10;;
8592;SDS011;4334;49.982;8.398;2024-02-16T02:07:15;4.87;;;3.57;;
8592;SDS011;4334;49.982;8.398;2024-02-16T02:09:43;8.73;;;3.77;;
8592;SDS011;4334;49.982;8.398;2024-02-16T02:12:10;6.53;;;3.70;;
8592;SDS011;4334;49.982;8.398;2024-02-16T02:14:37;7.30;;;4.13;;
8592;SDS011;4334;49.982;8.398;2024-02-16T02:17:04;5.90;;;3.80;;
8592;SDS011;4334;49.982;8.398;2024-02-16T02:19:30;5.57;;;3.70;;
8592;SDS011;4334;49.982;8.398;2024-02-16T02:21:57;9.10;;;4.20;;
8592;SDS011;4334;49.982;8.398;2024-02-16T02:24:27;5.13;;;3.50;;
8592;SDS011;4334;49.982;8.398;2024-02-16T02:26:54;8.83;;;3.93;;
8592;SDS011;4334;49.982;8.398;2024-02-16T02:29:22;5.97;;;4.07;;
8592;SDS011;4334;49.982;8.398;2024-02-16T02:31:49;8.00;;;4.40;;
8592;SDS011;4334;49.982;8.398;2024-02-16T02:34:15;6.60;;;4.17;;
8592;SDS011;4334;49.982;8.398;2024-02-16T02:36:42;8.50;;;4.47;;
8592;SDS011;4334;49.982;8.398;2024-02-16T02:39:09;6.40;;;3.73;;
8592;SDS011;4334;49.982;8.398;2024-02-16T02:41:37;5.77;;;4.30;;
8592;SDS011;4334;49.982;8.398;2024-02-16T02:44:04;7.10;;;4.27;;
8592;SDS011;4334;49.982;8.398;2024-02-16T02:46:31;7.90;;;4.07;;
8592;SDS011;4334;49.982;8.398;2024-02-16T02:48:57;7.53;;;4.20;;
8592;SDS011;4334;49.982;8.398;2024-02-16T02:51:24;13.53;;;4.60;;
8592;SDS011;4334;49.982;8.398;2024-02-16T02:53:52;8.50;;;4.53;;
8592;SDS011;4334;49.982;8.398;2024-02-16T02:56:18;9.67;;;4.23;;
8592;SDS011;4334;49.982;8.398;2024-02-16T02:58:46;6.90;;;4.67;;
8592;SDS011;4334;49.982;8.398;2024-02-16T03:01:13;7.73;;;4.47;;
8592;SDS011;4334;49.982;8.398;2024-02-16T03:03:40;8.77;;;4.60;;
8592;SDS011;4334;49.982;8.398;2024-02-16T03:06:07;7.57;;;4.97;;
8592;SDS011;4334;49.982;8.398;2024-02-16T03:08:34;7.73;;;4.27;;
8592;SDS011;4334;49.982;8.398;2024-02-16T03:11:01;10.30;;;5.17;;
8592;SDS011;4334;49.982;8.398;2024-02-16T03:13:29;10.27;;;4.80;;
8592;SDS011;4334;49.982;8.398;2024-02-16T03:15:59;9.33;;;4.90;;
8592;SDS011;4334;49.982;8.398;2024-02-16T03:18:29;7.87;;;4.93;;
8592;SDS011;4334;49.982;8.398;2024-02-16T03:20:56;8.50;;;4.63;;
8592;SDS011;4334;49.982;8.398;2024-02-16T03:23:23;7.93;;;4.63;;
8592;SDS011;4334;49.982;8.398;2024-02-16T03:25:50;9.67;;;4.50;;
8592;SDS011;4334;49.982;8.398;2024-02-16T03:28:17;9.10;;;4.20;;
8592;SDS011;4334;49.982;8.398;2024-02-16T03:30:44;7.27;;;4.57;;
8592;SDS011;4334;49.982;8.398;2024-02-16T03:33:12;6.50;;;4.60;;
8592;SDS011;4334;49.982;8.398;2024-02-16T03:35:39;6.13;;;4.20;;
8592;SDS011;4334;49.982;8.398;2024-02-16T03:38:06;5.93;;;4.00;;
8592;SDS011;4334;49.982;8.398;2024-02-16T03:40:33;7.27;;;4.30;;
8592;SDS011;4334;49.982;8.398;2024-02-16T03:43:00;8.20;;;4.53;;
8592;SDS011;4334;49.982;8.398;2024-02-16T03:45:26;8.37;;;4.43;;
8592;SDS011;4334;49.982;8.398;2024-02-16T03:47:53;5.00;;;4.03;;
8592;SDS011;4334;49.982;8.398;2024-02-16T03:50:21;11.37;;;4.60;;
8592;SDS011;4334;49.982;8.398;2024-02-16T03:52:48;8.63;;;4.50;;
8592;SDS011;4334;49.982;8.398;2024-02-16T03:55:14;8.53;;;4.30;;
8592;SDS011;4334;49.982;8.398;2024-02-16T03:57:41;8.83;;;4.47;;
8592;SDS011;4334;49.982;8.398;2024-02-16T04:00:08;6.93;;;4.47;;
8592;SDS011;4334;49.982;8.398;2024-02-16T04:02:37;6.60;;;4.50;;
8592;SDS011;4334;49.982;8.398;2024-02-16T04:05:04;6.00;;;4.30;;
8592;SDS011;4334;49.982;8.398;2024-02-16T04:07:34;7.23;;;4.77;;
8592;SDS011;4334;49.982;8.398;2024-02-16T04:10:00;6.37;;;4.40;;
8592;SDS011;4334;49.982;8.398;2024-02-16T04:12:27;7.53;;;4.67;;
8592;SDS011;4334;49.982;8.398;2024-02-16T04:14:54;6.23;;;4.07;;
8592;SDS011;4334;49.982;8.398;2024-02-16T04:17:21;10.27;;;4.53;;
8592;SDS011;4334;49.982;8.398;2024-02-16T04:19:47;8.10;;;4.80;;
8592;SDS011;4334;49.982;8.398;2024-02-16T04:22:14;7.13;;;4.43;;
8592;SDS011;4334;49.982;8.398;2024-02-16T04:24:42;6.47;;;4.83;;
8592;SDS011;4334;49.982;8.398;2024-02-16T04:27:08;9.77;;;5.10;;
8592;SDS011;4334;49.982;8.398;2024-02-16T04:29:35;7.03;;;4.40;;
8592;SDS011;4334;49.982;8.398;2024-02-16T04:32:02;9.33;;;5.30;;
8592;SDS011;4334;49.982;8.398;2024-02-16T04:34:29;9.07;;;5.00;;
8592;SDS011;4334;49.982;8.398;2024-02-16T04:36:56;10.47;;;4.93;;
8592;SDS011;4334;49.982;8.398;2024-02-16T04:39:22;9.77;;;5.80;;
8592;SDS011;4334;49.982;8.398;2024-02-16T04:41:50;10.80;;;5.33;;
8592;SDS011;4334;49.982;8.398;2024-02-16T04:44:18;7.83;;;5.23;;
8592;SDS011;4334;49.982;8.398;2024-02-16T04:46:45;7.70;;;5.30;;
8592;SDS011;4334;49.982;8.398;2024-02-16T04:49:11;8.03;;;5.17;;
8592;SDS011;4334;49.982;8.398;2024-02-16T04:51:38;7.30;;;5.17;;
8592;SDS011;4334;49.982;8.398;2024-02-16T04:54:05;7.83;;;5.70;;
8592;SDS011;4334;49.982;8.398;2024-02-16T04:56:32;7.90;;;5.60;;
8592;SDS011;4334;49.982;8.398;2024-02-16T04:59:00;8.30;;;4.97;;
8592;SDS011;4334;49.982;8.398;2024-02-16T05:01:26;7.40;;;5.70;;
8592;SDS011;4334;49.982;8.398;2024-02-16T05:03:54;6.80;;;5.20;;
8592;SDS011;4334;49.982;8.398;2024-02-16T05:06:21;10.70;;;5.87;;
8592;SDS011;4334;49.982;8.398;2024-02-16T05:08:48;8.83;;;5.33;;
8592;SDS011;4334;49.982;8.398;2024-02-16T05:11:15;9.17;;;5.43;;
8592;SDS011;4334;49.982;8.398;2024-02-16T05:13:42;10.33;;;5.57;;
8592;SDS011;4334;49.982;8.398;2024-02-16T05:16:10;8.83;;;5.77;;
8592;SDS011;4334;49.982;8.398;2024-02-16T05:18:37;9.17;;;5.97;;
8592;SDS011;4334;49.982;8.398;2024-02-16T05:21:04;9.43;;;6.30;;
8592;SDS011;4334;49.982;8.398;2024-02-16T05:23:32;11.27;;;6.23;;
8592;SDS011;4334;49.982;8.398;2024-02-16T05:25:59;12.70;;;6.30;;
8592;SDS011;4334;49.982;8.398;2024-02-16T05:28:25;11.00;;;6.10;;
8592;SDS011;4334;49.982;8.398;2024-02-16T05:30:52;10.63;;;6.43;;
8592;SDS011;4334;49.982;8.398;2024-02-16T05:33:20;9.27;;;6.50;;
8592;SDS011;4334;49.982;8.398;2024-02-16T05:35:48;14.80;;;9.73;;
8592;SDS011;4334;49.982;8.398;2024-02-16T05:38:19;8.87;;;6.07;;
8592;SDS011;4334;49.982;8.398;2024-02-16T05:40:57;11.67;;;7.10;;
8592;SDS011;4334;49.982;8.398;2024-02-16T05:43:23;24.13;;;12.00;;
8592;SDS011;4334;49.982;8.398;2024-02-16T05:45:50;11.17;;;7.63;;
8592;SDS011;4334;49.982;8.398;2024-02-16T05:48:17;20.40;;;10.30;;
8592;SDS011;4334;49.982;8.398;2024-02-16T05:50:45;46.80;;;19.40;;
8592;SDS011;4334;49.982;8.398;2024-02-16T05:53:12;50.47;;;23.80;;
8592;SDS011;4334;49.982;8.398;2024-02-16T05:55:39;28.13;;;14.43;;
8592;SDS011;4334;49.982;8.398;2024-02-16T05:58:06;16.50;;;10.00;;
8592;SDS011;4334;49.982;8.398;2024-02-16T06:00:33;9.70;;;7.20;;
8592;SDS011;4334;49.982;8.398;2024-02-16T06:03:00;18.50;;;10.33;;
8592;SDS011;4334;49.982;8.398;2024-02-16T06:05:27;25.50;;;14.63;;
8592;SDS011;4334;49.982;8.398;2024-02-16T06:07:55;79.27;;;39.73;;
8592;SDS011;4334;49.982;8.398;2024-02-16T06:10:23;46.13;;;23.30;;
8592;SDS011;4334;49.982;8.398;2024-02-16T06:12:50;44.70;;;22.07;;
8592;SDS011;4334;49.982;8.398;2024-02-16T06:15:17;29.10;;;15.27;;
8592;SDS011;4334;49.982;8.398;2024-02-16T06:17:44;18.43;;;11.00;;
8592;SDS011;4334;49.982;8.398;2024-02-16T06:20:11;20.77;;;12.77;;
8592;SDS011;4334;49.982;8.398;2024-02-16T06:22:38;17.03;;;10.57;;
8592;SDS011;4334;49.982;8.398;2024-02-16T06:25:07;20.53;;;12.40;;
8592;SDS011;4334;49.982;8.398;2024-02-16T06:27:34;13.63;;;8.63;;
8592;SDS011;4334;49.982;8.398;2024-02-16T06:30:00;11.00;;;7.00;;
8592;SDS011;4334;49.982;8.398;2024-02-16T06:32:29;13.53;;;7.40;;
8592;SDS011;4334;49.982;8.398;2024-02-16T06:34:56;11.63;;;6.70;;
8592;SDS011;4334;49.982;8.398;2024-02-16T06:37:23;13.23;;;7.43;;
8592;SDS011;4334;49.982;8.398;2024-02-16T06:39:49;13.10;;;7.17;;
8592;SDS011;4334;49.982;8.398;2024-02-16T06:42:18;9.93;;;6.73;;
8592;SDS011;4334;49.982;8.398;2024-02-16T06:44:45;10.77;;;7.10;;
8592;SDS011;4334;49.982;8.398;2024-02-16T06:47:11;9.43;;;6.60;;
8592;SDS011;4334;49.982;8.398;2024-02-16T06:49:38;9.83;;;6.87;;
8592;SDS011;4334;49.982;8.398;2024-02-16T06:52:05;10.17;;;6.87;;
8592;SDS011;4334;49.982;8.398;2024-02-16T06:54:32;10.57;;;6.57;;
8592;SDS011;4334;49.982;8.398;2024-02-16T06:56:59;9.97;;;6.90;;
8592;SDS011;4334;49.982;8.398;2024-02-16T06:59:27;10.20;;;6.37;;
8592;SDS011;4334;49.982;8.398;2024-02-16T07:01:54;11.03;;;6.70;;
8592;SDS011;4334;49.982;8.398;2024-02-16T07:04:20;16.90;;;8.83;;
8592;SDS011;4334;49.982;8.398;2024-02-16T07:06:47;13.73;;;8.10;;
8592;SDS011;4334;49.982;8.398;2024-02-16T07:09:14;14.43;;;7.93;;
8592;SDS011;4334;49.982;8.398;2024-02-16T07:11:40;11.07;;;6.87;;
8592;SDS011;4334;49.982;8.398;2024-02-16T07:14:07;8.53;;;6.20;;
8592;SDS011;4334;49.982;8.398;2024-02-16T07:16:35;10.37;;;6.07;;
8592;SDS011;4334;49.982;8.398;2024-02-16T07:19:02;10.27;;;6.70;;
8592;SDS011;4334;49.982;8.398;2024-02-16T07:21:30;11.70;;;6.13;;
8592;SDS011;4334;49.982;8.398;2024-02-16T07:23:56;7.63;;;5.67;;
8592;SDS011;4334;49.982;8.398;2024-02-16T07:26:23;8.67;;;5.13;;
8592;SDS011;4334;49.982;8.398;2024-02-16T07:28:50;9.33;;;5.70;;
8592;SDS011;4334;49.982;8.398;2024-02-16T07:31:17;9.43;;;5.77;;
8592;SDS011;4334;49.982;8.398;2024-02-16T07:33:45;8.97;;;5.37;;
8592;SDS011;4334;49.982;8.398;2024-02-16T07:36:11;7.33;;;5.50;;
8592;SDS011;4334;49.982;8.398;2024-02-16T07:38:39;9.90;;;5.27;;
8592;SDS011;4334;49.982;8.398;2024-02-16T07:41:05;7.03;;;5.20;;
8592;SDS011;4334;49.982;8.398;2024-02-16T07:43:32;9.37;;;5.10;;
8592;SDS011;4334;49.982;8.398;2024-02-16T07:45:59;6.67;;;4.87;;
8592;SDS011;4334;49.982;8.398;2024-02-16T07:48:25;6.17;;;4.57;;
8592;SDS011;4334;49.982;8.398;2024-02-16T07:50:54;7.20;;;4.67;;
8592;SDS011;4334;49.982;8.398;2024-02-16T07:53:23;6.90;;;4.93;;
8592;SDS011;4334;49.982;8.398;2024-02-16T07:55:49;7.20;;;5.10;;
8592;SDS011;4334;49.982;8.398;2024-02-16T07:58:16;6.90;;;4.37;;
8592;SDS011;4334;49.982;8.398;2024-02-16T08:00:43;6.27;;;4.67;;
8592;SDS011;4334;49.982;8.398;2024-02-16T08:03:10;7.33;;;5.20;;
8592;SDS011;4334;49.982;8.398;2024-02-16T08:05:36;6.77;;;5.30;;
8592;SDS011;4334;49.982;8.398;2024-02-16T08:08:04;7.17;;;4.77;;
8592;SDS011;4334;49.982;8.398;2024-02-16T08:10:31;7.67;;;4.83;;
8592;SDS011;4334;49.982;8.398;2024-02-16T08:12:58;7.00;;;5.00;;
8592;SDS011;4334;49.982;8.398;2024-02-16T08:15:25;7.33;;;5.27;;
8592;SDS011;4334;49.982;8.398;2024-02-16T08:17:51;8.97;;;5.30;;
8592;SDS011;4334;49.982;8.398;2024-02-16T08:20:19;9.03;;;5.13;;
8592;SDS011;4334;49.982;8.398;2024-02-16T08:22:46;7.50;;;5.20;;
8592;SDS011;4334;49.982;8.398;2024-02-16T08:25:14;5.90;;;5.07;;
8592;SDS011;4334;49.982;8.398;2024-02-16T08:27:41;7.83;;;5.60;;
8592;SDS011;4334;49.982;8.398;2024-02-16T08:30:08;9.03;;;5.57;;
8592;SDS011;4334;49.982;8.398;2024-02-16T08:32:36;8.67;;;5.13;;
8592;SDS011;4334;49.982;8.398;2024-02-16T08:35:03;8.87;;;5.27;;
8592;SDS011;4334;49.982;8.398;2024-02-16T08:37:30;8.33;;;5.50;;
8592;SDS011;4334;49.982;8.398;2024-02-16T08:39:58;10.87;;;5.27;;
8592;SDS011;4334;49.982;8.398;2024-02-16T08:42:26;7.53;;;5.50;;
8592;SDS011;4334;49.982;8.398;2024-02-16T08:44:53;7.60;;;5.63;;
8592;SDS011;4334;49.982;8.398;2024-02-16T08:47:19;7.20;;;5.60;;
8592;SDS011;4334;49.982;8.398;2024-02-16T08:49:47;9.50;;;5.87;;
8592;SDS011;4334;49.982;8.398;2024-02-16T08:52:13;8.50;;;5.60;;
8592;SDS011;4334;49.982;8.398;2024-02-16T08:54:40;7.70;;;5.77;;
8592;SDS011;4334;49.982;8.398;2024-02-16T08:57:08;6.83;;;5.30;;
8592;SDS011;4334;49.982;8.398;2024-02-16T08:59:37;7.13;;;5.33;;
8592;SDS011;4334;49.982;8.398;2024-02-16T09:02:04;9.23;;;5.80;;
8592;SDS011;4334;49.982;8.398;2024-02-16T09:04:31;8.37;;;5.80;;
8592;SDS011;4334;49.982;8.398;2024-02-16T09:06:58;6.40;;;5.27;;
8592;SDS011;4334;49.982;8.398;2024-02-16T09:09:25;8.50;;;5.83;;
8592;SDS011;4334;49.982;8.398;2024-02-16T09:11:53;9.10;;;6.33;;
8592;SDS011;4334;49.982;8.398;2024-02-16T09:14:20;10.00;;;6.50;;
8592;SDS011;4334;49.982;8.398;2024-02-16T09:16:49;19.20;;;9.97;;
8592;SDS011;4334;49.982;8.398;2024-02-16T09:19:17;30.40;;;16.30;;
8592;SDS011;4334;49.982;8.398;2024-02-16T09:21:44;6.33;;;5.43;;
8592;SDS011;4334;49.982;8.398;2024-02-16T09:24:11;9.17;;;6.80;;
8592;SDS011;4334;49.982;8.398;2024-02-16T09:26:42;10.93;;;6.40;;
8592;SDS011;4334;49.982;8.398;2024-02-16T09:29:11;7.97;;;5.20;;
8592;SDS011;4334;49.982;8.398;2024-02-16T09:31:37;8.03;;;5.03;;
8592;SDS011;4334;49.982;8.398;2024-02-16T09:34:06;8.53;;;5.43;;
8592;SDS011;4334;49.982;8.398;2024-02-16T09:36:32;6.67;;;4.90;;
8592;SDS011;4334;49.982;8.398;2024-02-16T09:39:01;6.53;;;4.97;;
8592;SDS011;4334;49.982;8.398;2024-02-16T09:41:28;7.70;;;5.10;;
8592;SDS011;4334;49.982;8.398;2024-02-16T09:43:54;7.40;;;5.27;;
8592;SDS011;4334;49.982;8.398;2024-02-16T09:46:21;7.37;;;4.80;;
8592;SDS011;4334;49.982;8.398;2024-02-16T09:48:49;6.93;;;4.70;;
8592;SDS011;4334;49.982;8.398;2024-02-16T09:51:18;6.37;;;5.03;;
8592;SDS011;4334;49.982;8.398;2024-02-16T09:53:47;9.00;;;5.93;;
8592;SDS011;4334;49.982;8.398;2024-02-16T09:56:18;10.03;;;5.70;;
8592;SDS011;4334;49.982;8.398;2024-02-16T09:58:45;11.10;;;5.77;;
8592;SDS011;4334;49.982;8.398;2024-02-16T10:01:17;8.63;;;5.60;;
8592;SDS011;4334;49.982;8.398;2024-02-16T10:03:44;7.30;;;5.20;;
8592;SDS011;4334;49.982;8.398;2024-02-16T10:06:12;8.33;;;5.57;;
8592;SDS011;4334;49.982;8.398;2024-02-16T10:08:48;7.53;;;5.50;;
8592;SDS011;4334;49.982;8.398;2024-02-16T10:11:15;8.83;;;4.67;;
8592;SDS011;4334;49.982;8.398;2024-02-16T10:13:53;7.10;;;5.20;;
8592;SDS011;4334;49.982;8.398;2024-02-16T10:16:21;8.67;;;5.37;;
8592;SDS011;4334;49.982;8.398;2024-02-16T10:18:47;8.97;;;5.10;;
8592;SDS011;4334;49.982;8.398;2024-02-16T10:21:23;7.30;;;5.37;;
8592;SDS011;4334;49.982;8.398;2024-02-16T10:23:56;6.67;;;5.10;;
8592;SDS011;4334;49.982;8.398;2024-02-16T10:26:26;7.60;;;5.17;;
8592;SDS011;4334;49.982;8.398;2024-02-16T10:28:55;7.07;;;5.10;;
8592;SDS011;4334;49.982;8.398;2024-02-16T10:31:23;7.07;;;5.40;;
8592;SDS011;4334;49.982;8.398;2024-02-16T10:33:54;6.40;;;4.53;;
8592;SDS011;4334;49.982;8.398;2024-02-16T10:36:23;8.53;;;5.30;;
8592;SDS011;4334;49.982;8.398;2024-02-16T10:38:53;5.47;;;4.50;;
8592;SDS011;4334;49.982;8.398;2024-02-16T10:41:22;5.97;;;4.87;;
8592;SDS011;4334;49.982;8.398;2024-02-16T10:43:54;7.50;;;4.73;;
8592;SDS011;4334;49.982;8.398;2024-02-16T10:46:22;6.67;;;4.63;;
8592;SDS011;4334;49.982;8.398;2024-02-16T10:48:49;6.07;;;4.57;;
8592;SDS011;4334;49.982;8.398;2024-02-16T10:51:16;7.53;;;5.00;;
8592;SDS011;4334;49.982;8.398;2024-02-16T10:53:46;8.47;;;5.40;;
8592;SDS011;4334;49.982;8.398;2024-02-16T10:56:13;6.47;;;4.90;;
8592;SDS011;4334;49.982;8.398;2024-02-16T10:58:41;8.93;;;5.27;;
8592;SDS011;4334;49.982;8.398;2024-02-16T11:01:08;7.67;;;5.70;;
8592;SDS011;4334;49.982;8.398;2024-02-16T11:03:37;6.23;;;4.67;;
8592;SDS011;4334;49.982;8.398;2024-02-16T11:06:11;6.07;;;4.47;;
8592;SDS011;4334;49.982;8.398;2024-02-16T11:08:41;5.53;;;4.70;;
8592;SDS011;4334;49.982;8.398;2024-02-16T11:11:08;7.77;;;5.10;;
8592;SDS011;4334;49.982;8.398;2024-02-16T11:13:37;6.03;;;4.60;;
8592;SDS011;4334;49.982;8.398;2024-02-16T11:16:08;6.40;;;4.90;;
8592;SDS011;4334;49.982;8.398;2024-02-16T11:18:38;7.20;;;4.90;;
8592;SDS011;4334;49.982;8.398;2024-02-16T11:21:11;6.27;;;4.80;;
8592;SDS011;4334;49.982;8.398;2024-02-16T11:23:38;6.70;;;5.17;;
8592;SDS011;4334;49.982;8.398;2024-02-16T11:26:08;8.47;;;4.60;;
8592;SDS011;4334;49.982;8.398;2024-02-16T11:28:37;9.40;;;5.77;;
8592;SDS011;4334;49.982;8.398;2024-02-16T11:31:07;6.70;;;4.70;;
8592;SDS011;4334;49.982;8.398;2024-02-16T11:33:34;8.37;;;4.60;;
8592;SDS011;4334;49.982;8.398;2024-02-16T11:36:02;5.93;;;4.90;;
8592;SDS011;4334;49.982;8.398;2024-02-16T11:38:30;6.57;;;4.63;;
8592;SDS011;4334;49.982;8.398;2024-02-16T11:40:58;8.17;;;4.80;;
8592;SDS011;4334;49.982;8.398;2024-02-16T11:43:26;5.90;;;4.33;;
8592;SDS011;4334;49.982;8.398;2024-02-16T11:45:53;5.30;;;4.20;;
8592;SDS011;4334;49.982;8.398;2024-02-16T11:48:21;6.90;;;4.40;;
8592;SDS011;4334;49.982;8.398;2024-02-16T11:50:49;6.47;;;4.43;;
8592;SDS011;4334;49.982;8.398;2024-02-16T11:53:24;8.67;;;4.20;;
8592;SDS011;4334;49.982;8.398;2024-02-16T11:55:50;5.17;;;4.07;;
8592;SDS011;4334;49.982;8.398;2024-02-16T11:58:17;6.83;;;4.00;;
8592;SDS011;4334;49.982;8.398;2024-02-16T12:00:45;5.63;;;4.00;;
8592;SDS011;4334;49.982;8.398;2024-02-16T12:03:17;5.10;;;3.73;;
8592;SDS011;4334;49.982;8.398;2024-02-16T12:05:50;5.30;;;3.60;;
8592;SDS011;4334;49.982;8.398;2024-02-16T12:08:18;5.13;;;3.63;;
8592;SDS011;4334;49.982;8.398;2024-02-16T12:10:46;5.00;;;3.37;;
8592;SDS011;4334;49.982;8.398;2024-02-16T12:13:13;5.30;;;3.53;;
8592;SDS011;4334;49.982;8.398;2024-02-16T12:15:40;5.13;;;3.37;;
8592;SDS011;4334;49.982;8.398;2024-02-16T12:18:07;5.47;;;3.30;;
8592;SDS011;4334;49.982;8.398;2024-02-16T12:20:34;5.67;;;3.03;;
8592;SDS011;4334;49.982;8.398;2024-02-16T12:23:11;6.53;;;3.03;;
8592;SDS011;4334;49.982;8.398;2024-02-16T12:25:38;3.87;;;2.50;;
8592;SDS011;4334;49.982;8.398;2024-02-16T12:28:05;4.20;;;2.70;;
8592;SDS011;4334;49.982;8.398;2024-02-16T12:30:32;5.13;;;2.97;;
8592;SDS011;4334;49.982;8.398;2024-02-16T12:32:59;4.80;;;2.70;;
8592;SDS011;4334;49.982;8.398;2024-02-16T12:35:26;4.15;;;2.78;;
8592;SDS011;4334;49.982;8.398;2024-02-16T12:37:52;5.28;;;2.58;;
8592;SDS011;4334;49.982;8.398;2024-02-16T12:40:20;3.60;;;2.30;;
8592;SDS011;4334;49.982;8.398;2024-02-16T12:42:47;3.60;;;2.60;;
8592;SDS011;4334;49.982;8.398;2024-02-16T12:45:14;5.05;;;2.60;;
8592;SDS011;4334;49.982;8.398;2024-02-16T12:47:41;3.97;;;2.28;;
8592;SDS011;4334;49.982;8.398;2024-02-16T12:50:08;3.15;;;2.50;;
8592;SDS011;4334;49.982;8.398;2024-02-16T12:52:35;4.55;;;2.20;;
8592;SDS011;4334;49.982;8.398;2024-02-16T12:55:03;3.67;;;2.40;;
8592;SDS011;4334;49.982;8.398;2024-02-16T12:57:32;5.40;;;2.50;;
8592;SDS011;4334;49.982;8.398;2024-02-16T12:59:59;5.60;;;2.45;;
8592;SDS011;4334;49.982;8.398;2024-02-16T13:02:27;6.75;;;2.67;;
8592;SDS011;4334;49.982;8.398;2024-02-16T13:04:54;3.53;;;2.15;;
8592;SDS011;4334;49.982;8.398;2024-02-16T13:07:21;3.25;;;2.20;;
8592;SDS011;4334;49.982;8.398;2024-02-16T13:09:47;5.05;;;2.33;;
8592;SDS011;4334;49.982;8.398;2024-02-16T13:12:15;3.05;;;2.00;;
8592;SDS011;4334;49.982;8.398;2024-02-16T13:14:43;2.63;;;1.88;;
8592;SDS011;4334;49.982;8.398;2024-02-16T13:17:10;3.28;;;2.10;;
8592;SDS011;4334;49.982;8.398;2024-02-16T13:19:37;4.97;;;2.30;;
8592;SDS011;4334;49.982;8.398;2024-02-16T13:22:04;3.55;;;2.22;;
8592;SDS011;4334;49.982;8.398;2024-02-16T13:24:30;7.45;;;2.05;;
8592;SDS011;4334;49.982;8.398;2024-02-16T13:26:58;2.33;;;1.80;;
8592;SDS011;4334;49.982;8.398;2024-02-16T13:29:25;4.78;;;2.13;;
8592;SDS011;4334;49.982;8.398;2024-02-16T13:31:54;4.72;;;2.40;;
8592;SDS011;4334;49.982;8.398;2024-02-16T13:34:20;4.50;;;2.70;;
8592;SDS011;4334;49.982;8.398;2024-02-16T13:36:47;6.32;;;2.80;;
8592;SDS011;4334;49.982;8.398;2024-02-16T13:39:13;8.60;;;3.70;;
8592;SDS011;4334;49.982;8.398;2024-02-16T13:41:41;3.38;;;2.30;;
8592;SDS011;4334;49.982;8.398;2024-02-16T13:44:08;2.47;;;2.08;;
8592;SDS011;4334;49.982;8.398;2024-02-16T13:46:35;3.78;;;3.00;;
8592;SDS011;4334;49.982;8.398;2024-02-16T13:49:03;4.13;;;2.15;;
8592;SDS011;4334;49.982;8.398;2024-02-16T13:51:30;2.95;;;2.00;;
8592;SDS011;4334;49.982;8.398;2024-02-16T13:53:57;2.72;;;1.90;;
8592;SDS011;4334;49.982;8.398;2024-02-16T13:56:23;3.65;;;2.03;;
8592;SDS011;4334;49.982;8.398;2024-02-16T13:58:50;3.45;;;2.00;;
8592;SDS011;4334;49.982;8.398;2024-02-16T14:01:17;4.15;;;2.05;;
8592;SDS011;4334;49.982;8.398;2024-02-16T14:03:43;3.88;;;1.80;;
8592;SDS011;4334;49.982;8.398;2024-02-16T14:06:12;6.82;;;2.28;;
8592;SDS011;4334;49.982;8.398;2024-02-16T14:08:38;2.80;;;1.80;;
8592;SDS011;4334;49.982;8.398;2024-02-16T14:11:05;2.97;;;2.03;;
8592;SDS011;4334;49.982;8.398;2024-02-16T14:13:33;2.55;;;1.88;;
8592;SDS011;4334;49.982;8.398;2024-02-16T14:16:00;3.30;;;2.10;;
8592;SDS011;4334;49.982;8.398;2024-02-16T14:18:27;4.57;;;2.05;;
8592;SDS011;4334;49.982;8.398;2024-02-16T14:20:54;2.92;;;2.05;;
8592;SDS011;4334;49.982;8.398;2024-02-16T14:23:22;4.45;;;2.10;;
8592;SDS011;4334;49.982;8.398;2024-02-16T14:25:48;7.82;;;2.20;;
8592;SDS011;4334;49.982;8.398;2024-02-16T14:28:15;4.72;;;2.30;;
8592;SDS011;4334;49.982;8.398;2024-02-16T14:30:42;5.68;;;2.25;;
8592;SDS011;4334;49.982;8.398;2024-02-16T14:33:09;3.25;;;2.40;;
8592;SDS011;4334;49.982;8.398;2024-02-16T14:35:35;5.18;;;2.10;;
8592;SDS011;4334;49.982;8.398;2024-02-16T14:38:02;3.42;;;1.90;;
8592;SDS011;4334;49.982;8.398;2024-02-16T14:40:31;6.30;;;2.00;;
8592;SDS011;4334;49.982;8.398;2024-02-16T14:42:58;4.90;;;2.30;;
8592;SDS011;4334;49.982;8.398;2024-02-16T14:45:25;4.27;;;2.10;;
8592;SDS011;4334;49.982;8.398;2024-02-16T14:47:52;3.40;;;2.27;;
8592;SDS011;4334;49.982;8.398;2024-02-16T14:50:18;2.53;;;2.03;;
8592;SDS011;4334;49.982;8.398;2024-02-16T14:52:45;2.90;;;1.97;;
8592;SDS011;4334;49.982;8.398;2024-02-16T14:55:12;4.33;;;2.27;;
8592;SDS011;4334;49.982;8.398;2024-02-16T14:57:41;2.73;;;1.93;;
8592;SDS011;4334;49.982;8.398;2024-02-16T15:00:08;3.33;;;2.40;;
8592;SDS011;4334;49.982;8.398;2024-02-16T15:02:36;5.03;;;2.23;;
8592;SDS011;4334;49.982;8.398;2024-02-16T15:05:03;5.73;;;2.77;;
8592;SDS011;4334;49.982;8.398;2024-02-16T15:07:31;5.50;;;3.20;;
8592;SDS011;4334;49.982;8.398;2024-02-16T15:09:57;5.67;;;3.23;;
8592;SDS011;4334;49.982;8.398;2024-02-16T15:12:24;4.77;;;3.37;;
8592;SDS011;4334;49.982;8.398;2024-02-16T15:14:53;7.37;;;3.63;;